Buffalo Range Airport


Codes: FVCZ/BFO
Name: Buffalo Range Airport
City: Chiredzi
Country: Zimbabwe
Elevation: 1421 ft.

Photos at Buffalo Range Airport


   Photos courtesy of SpottingLog. You can add your own sightings and photos by signing up for a free trial today.



No photos found.

Weather at Buffalo Range Airport


Time (UTC)DescriptionTempratureWindCloud coverageVisibilityPressureHumidity
13-Jun-2024 03:00Clear Sky10°C4 mph, NW0%10000m1025hPa82%
13-Jun-2024 06:00Clear Sky12°C4 mph, NW0%10000m1025hPa74%
13-Jun-2024 09:00Clear Sky20°C2 mph, S0%10000m1025hPa46%
13-Jun-2024 12:00Clear Sky26°C7 mph, SE0%10000m1021hPa21%
13-Jun-2024 15:00Clear Sky22°C4 mph, SE0%10000m1022hPa30%
13-Jun-2024 18:00Clear Sky16°C4 mph, E0%10000m1024hPa43%
13-Jun-2024 21:00Clear Sky13°C2 mph, E0%10000m1025hPa54%
14-Jun-2024 00:00Clear Sky11°C2 mph, SE0%10000m1025hPa63%
14-Jun-2024 03:00Clear Sky9°C2 mph, SW0%10000m1026hPa77%
14-Jun-2024 06:00Clear Sky14°C2 mph, SE0%10000m1028hPa61%
14-Jun-2024 09:00Clear Sky22°C7 mph, SE0%10000m1026hPa42%
14-Jun-2024 12:00Clear Sky25°C7 mph, SE0%10000m1022hPa33%
14-Jun-2024 15:00Clear Sky22°C7 mph, SE0%10000m1022hPa38%
14-Jun-2024 18:00Clear Sky15°C4 mph, SE0%10000m1024hPa66%
14-Jun-2024 21:00Clear Sky12°C0 mph, NE0%10000m1024hPa78%
15-Jun-2024 00:00Clear Sky11°C2 mph, NW0%10000m1024hPa86%
15-Jun-2024 03:00Clear Sky10°C2 mph, NW0%10000m1024hPa88%
15-Jun-2024 06:00Clear Sky14°C2 mph, W0%10000m1025hPa67%
15-Jun-2024 09:00Clear Sky23°C4 mph, SE0%10000m1023hPa37%
15-Jun-2024 12:00Clear Sky26°C7 mph, SE0%10000m1020hPa27%
15-Jun-2024 15:00Clear Sky22°C4 mph, SE0%10000m1020hPa31%
15-Jun-2024 18:00Clear Sky16°C4 mph, E0%10000m1022hPa44%
15-Jun-2024 21:00Clear Sky13°C2 mph, E0%10000m1023hPa56%
16-Jun-2024 00:00Clear Sky11°C2 mph, NE0%10000m1022hPa63%
16-Jun-2024 03:00Clear Sky10°C2 mph, W0%10000m1023hPa70%
16-Jun-2024 06:00Clear Sky15°C2 mph, SW0%10000m1024hPa53%
16-Jun-2024 09:00Clear Sky24°C4 mph, SE0%10000m1022hPa41%
16-Jun-2024 12:00Clear Sky26°C7 mph, SE0%10000m1018hPa29%
16-Jun-2024 15:00Clear Sky23°C7 mph, SE0%10000m1019hPa34%
16-Jun-2024 18:00Clear Sky17°C4 mph, E0%10000m1021hPa51%
16-Jun-2024 21:00Clear Sky14°C2 mph, E2%10000m1021hPa64%
17-Jun-2024 00:00Clear Sky12°C2 mph, N2%10000m1022hPa75%
17-Jun-2024 03:00Clear Sky10°C0 mph, SE0%10000m1022hPa84%
17-Jun-2024 06:00Clear Sky15°C0 mph, NE0%10000m1023hPa63%
17-Jun-2024 09:00Clear Sky25°C4 mph, SE0%10000m1022hPa36%
17-Jun-2024 12:00Clear Sky27°C7 mph, SE1%10000m1018hPa25%
17-Jun-2024 15:00Clear Sky23°C7 mph, SE1%10000m1018hPa32%
17-Jun-2024 18:00Clear Sky17°C4 mph, E1%10000m1020hPa49%
17-Jun-2024 21:00Clear Sky15°C4 mph, NE2%10000m1020hPa60%
18-Jun-2024 00:00Clear Sky12°C2 mph, NE3%10000m1019hPa71%